createdAt,value
2023-09-17T00:00:12.594Z,98391.06
2023-09-17T00:02:39.326Z,98384.28
2023-09-17T00:05:06.356Z,98386.72
2023-09-17T00:07:33.065Z,98395.84
2023-09-17T00:09:59.852Z,98382.06
2023-09-17T00:12:26.848Z,98388.59
2023-09-17T00:14:53.657Z,98381.59
2023-09-17T00:17:20.406Z,98390.09
2023-09-17T00:19:47.158Z,98386.25
2023-09-17T00:22:15.949Z,98376.72
2023-09-17T00:24:42.914Z,98372.03
2023-09-17T00:27:09.570Z,98382.16
2023-09-17T00:29:36.294Z,98384.66
2023-09-17T00:32:02.939Z,98385.50
2023-09-17T00:34:29.568Z,98390.16
2023-09-17T00:36:56.507Z,98386.81
2023-09-17T00:39:23.285Z,98382.47
2023-09-17T00:41:49.962Z,98380.50
2023-09-17T00:44:17.161Z,98381.03
2023-09-17T00:46:43.893Z,98384.66
2023-09-17T00:49:14.680Z,98387.63
2023-09-17T00:51:42.459Z,98382.31
2023-09-17T00:54:12.005Z,98386.13
2023-09-17T00:56:38.964Z,98381.94
2023-09-17T00:59:07.134Z,98377.63
2023-09-17T01:01:34.197Z,98381.06
2023-09-17T01:04:01.737Z,98383.88
2023-09-17T01:06:31.793Z,98389.59
2023-09-17T01:08:59.345Z,98384.56
2023-09-17T01:11:26.934Z,98389.06
2023-09-17T01:14:00.117Z,98388.38
2023-09-17T01:16:27.826Z,98386.53
2023-09-17T01:18:55.375Z,98381.19
2023-09-17T01:21:33.239Z,98392.72
2023-09-17T01:24:06.734Z,98390.66
2023-09-17T01:26:37.127Z,98387.00
2023-09-17T01:29:06.067Z,98385.13
2023-09-17T01:31:35.405Z,98385.09
2023-09-17T01:34:02.733Z,98377.03
2023-09-17T01:36:34.512Z,98382.22
2023-09-17T01:39:06.273Z,98381.66
2023-09-17T01:41:37.352Z,98379.47
2023-09-17T01:44:07.368Z,98391.38
2023-09-17T01:46:36.325Z,98377.88
2023-09-17T01:49:04.867Z,98387.47
2023-09-17T01:51:32.760Z,98385.06
2023-09-17T01:53:59.809Z,98389.38
2023-09-17T01:56:27.481Z,98382.53
2023-09-17T01:58:54.182Z,98376.06
2023-09-17T02:01:20.961Z,98378.56
2023-09-17T02:03:47.761Z,98377.44
2023-09-17T02:06:14.406Z,98375.44
2023-09-17T02:08:41.010Z,98373.63
2023-09-17T02:11:07.703Z,98377.13
2023-09-17T02:13:34.468Z,98385.09
2023-09-17T02:16:01.109Z,98378.09
2023-09-17T02:18:27.971Z,98387.09
2023-09-17T02:20:54.679Z,98388.09
2023-09-17T02:23:21.301Z,98392.56
2023-09-17T02:25:48.267Z,98394.53
2023-09-17T02:28:15.240Z,98380.41
2023-09-17T02:30:41.918Z,98383.19
2023-09-17T02:33:11.736Z,98378.19
2023-09-17T02:35:39.008Z,98384.50
2023-09-17T02:38:05.854Z,98381.63
2023-09-17T02:40:32.659Z,98384.59
2023-09-17T02:42:59.490Z,98387.38
2023-09-17T02:45:26.752Z,98390.22
2023-09-17T02:47:53.571Z,98390.22
2023-09-17T02:50:21.003Z,98385.19
2023-09-17T02:52:47.951Z,98383.97
2023-09-17T02:55:14.718Z,98385.41
2023-09-17T02:57:41.488Z,98381.22
2023-09-17T03:00:11.977Z,98382.06
2023-09-17T03:02:40.317Z,98367.22
2023-09-17T03:05:12.039Z,98379.00
2023-09-17T03:07:39.220Z,98383.50
2023-09-17T03:10:08.455Z,98380.75
2023-09-17T03:12:35.121Z,98386.69
2023-09-17T03:15:01.771Z,98387.81
2023-09-17T03:17:28.795Z,98389.09
2023-09-17T03:19:55.683Z,98383.09
2023-09-17T03:22:22.463Z,98383.22
2023-09-17T03:25:03.301Z,98378.34
2023-09-17T03:27:31.414Z,98377.63
2023-09-17T03:29:58.146Z,98383.25
2023-09-17T03:32:24.844Z,98381.19
2023-09-17T03:34:51.517Z,98381.50
2023-09-17T03:37:18.211Z,98380.66
2023-09-17T03:40:09.208Z,98384.59
2023-09-17T03:42:36.937Z,98389.22
2023-09-17T03:45:07.396Z,98381.25
2023-09-17T03:47:34.327Z,98389.81
2023-09-17T03:50:01.431Z,98385.31
2023-09-17T03:52:28.547Z,98389.97
2023-09-17T03:54:55.510Z,98385.31
2023-09-17T03:57:22.987Z,98388.84
2023-09-17T03:59:49.638Z,98390.78
2023-09-17T04:02:16.772Z,98384.94
2023-09-17T04:04:43.617Z,98376.28
2023-09-17T04:07:10.363Z,98386.34
2023-09-17T04:09:36.974Z,98389.44
2023-09-17T04:12:07.501Z,98395.63
2023-09-17T04:14:34.177Z,98382.75
2023-09-17T04:17:01.956Z,98385.84
2023-09-17T04:19:30.627Z,98391.31
2023-09-17T04:21:57.429Z,98388.78
2023-09-17T04:24:25.139Z,98391.59
2023-09-17T04:26:53.745Z,98392.56
2023-09-17T04:29:21.435Z,98392.72
2023-09-17T04:31:48.368Z,98395.81
2023-09-17T04:34:16.394Z,98391.47
2023-09-17T04:36:43.103Z,98401.25
2023-09-17T04:39:11.134Z,98405.75
2023-09-17T04:41:38.227Z,98404.50
2023-09-17T04:44:04.922Z,98405.31
2023-09-17T04:46:31.708Z,98400.88
2023-09-17T04:48:58.494Z,98392.34
2023-09-17T04:51:25.205Z,98414.06
2023-09-17T04:53:52.124Z,98415.28
2023-09-17T04:56:18.906Z,98417.25
2023-09-17T04:58:45.564Z,98416.56
2023-09-17T05:01:13.991Z,98416.69
2023-09-17T05:03:43.407Z,98419.22
2023-09-17T05:06:10.200Z,98412.38
2023-09-17T05:08:36.955Z,98419.81
2023-09-17T05:11:04.414Z,98420.31
2023-09-17T05:13:31.138Z,98422.72
2023-09-17T05:15:58.035Z,98417.41
2023-09-17T05:18:24.800Z,98419.25
2023-09-17T05:20:55.100Z,98424.28
2023-09-17T05:23:23.021Z,98421.50
2023-09-17T05:25:50.053Z,98427.63
2023-09-17T05:28:17.261Z,98428.59
2023-09-17T05:30:44.199Z,98438.53
2023-09-17T05:33:11.354Z,98443.84
2023-09-17T05:35:38.236Z,98449.03
2023-09-17T05:38:05.386Z,98444.97
2023-09-17T05:40:32.517Z,98450.41
2023-09-17T05:42:59.281Z,98450.41
2023-09-17T05:45:27.380Z,98453.06
2023-09-17T05:47:54.024Z,98441.47
2023-09-17T05:50:20.814Z,98440.50
2023-09-17T05:52:47.493Z,98441.56
2023-09-17T05:55:15.585Z,98438.53
2023-09-17T05:57:43.979Z,98436.00
2023-09-17T06:00:11.182Z,98438.53
2023-09-17T06:02:38.467Z,98444.53
2023-09-17T06:05:05.963Z,98445.25
2023-09-17T06:07:32.756Z,98448.59
2023-09-17T06:09:59.429Z,98447.47
2023-09-17T06:12:26.249Z,98448.75
2023-09-17T06:14:53.013Z,98447.47
2023-09-17T06:17:20.149Z,98445.38
2023-09-17T06:19:47.044Z,98448.03
2023-09-17T06:22:13.690Z,98451.09
2023-09-17T06:24:40.398Z,98450.28
2023-09-17T06:27:07.099Z,98453.47
2023-09-17T06:29:33.832Z,98455.81
2023-09-17T06:32:00.922Z,98450.94
2023-09-17T06:34:27.823Z,98459.19
2023-09-17T06:36:54.729Z,98451.75
2023-09-17T06:39:22.011Z,98451.47
2023-09-17T06:41:48.731Z,98457.19
2023-09-17T06:44:15.423Z,98452.66
2023-09-17T06:46:42.414Z,98447.31
2023-09-17T06:49:09.145Z,98443.03
2023-09-17T06:51:35.818Z,98432.06
2023-09-17T06:54:02.804Z,98438.88
2023-09-17T06:56:30.428Z,98438.97
2023-09-17T06:58:57.281Z,98448.34
2023-09-17T07:01:23.966Z,98452.31
2023-09-17T07:03:51.193Z,98446.59
2023-09-17T07:06:19.282Z,98459.25
2023-09-17T07:08:45.977Z,98461.19
2023-09-17T07:11:12.770Z,98447.28
2023-09-17T07:13:40.733Z,98457.25
2023-09-17T07:16:07.765Z,98463.16
2023-09-17T07:18:35.609Z,98446.50
2023-09-17T07:21:02.501Z,98442.88
2023-09-17T07:23:29.112Z,98456.03
2023-09-17T07:25:55.817Z,98460.09
2023-09-17T07:28:22.704Z,98468.00
2023-09-17T07:30:56.095Z,98462.22
2023-09-17T07:33:23.383Z,98467.63
2023-09-17T07:35:50.333Z,98462.66
2023-09-17T07:38:17.185Z,98466.69
2023-09-17T07:40:44.071Z,98462.25
2023-09-17T07:43:10.978Z,98458.88
2023-09-17T07:45:37.645Z,98449.28
2023-09-17T07:48:04.856Z,98458.75
2023-09-17T07:50:31.712Z,98456.72
2023-09-17T07:52:58.420Z,98453.47
2023-09-17T07:55:25.184Z,98445.69
2023-09-17T07:57:52.377Z,98452.28
2023-09-17T08:00:19.219Z,98451.78
2023-09-17T08:02:46.922Z,98445.19
2023-09-17T08:05:14.709Z,98449.06
2023-09-17T08:07:41.674Z,98456.47
2023-09-17T08:10:09.157Z,98456.00
2023-09-17T08:12:35.773Z,98458.44
2023-09-17T08:15:02.801Z,98463.97
2023-09-17T08:17:30.235Z,98469.00
2023-09-17T08:19:58.339Z,98459.91
2023-09-17T08:22:26.961Z,98455.69
2023-09-17T08:24:53.860Z,98460.47
2023-09-17T08:27:20.954Z,98455.50
2023-09-17T08:29:47.720Z,98453.19
2023-09-17T08:32:14.514Z,98449.19
2023-09-17T08:34:41.426Z,98444.00
2023-09-17T08:37:08.095Z,98449.31
2023-09-17T08:39:34.826Z,98460.41
2023-09-17T08:42:02.213Z,98458.00
2023-09-17T08:44:31.373Z,98460.13
2023-09-17T08:46:59.097Z,98466.13
2023-09-17T08:49:25.822Z,98460.84
2023-09-17T08:51:56.547Z,98455.91
2023-09-17T08:54:26.725Z,98464.00
2023-09-17T08:56:55.684Z,98465.66
2023-09-17T08:59:30.761Z,98471.16
2023-09-17T09:02:07.218Z,98464.84
2023-09-17T09:04:37.748Z,98470.72
2023-09-17T09:07:07.057Z,98468.63
2023-09-17T09:09:37.338Z,98462.09
2023-09-17T09:12:04.904Z,98468.88
2023-09-17T09:14:31.864Z,98456.94
2023-09-17T09:16:59.015Z,98465.22
2023-09-17T09:19:26.375Z,98452.34
2023-09-17T09:21:53.185Z,98450.25
2023-09-17T09:24:20.175Z,98453.19
2023-09-17T09:26:46.892Z,98455.03
2023-09-17T09:29:14.238Z,98458.69
2023-09-17T09:31:41.335Z,98460.81
2023-09-17T09:34:08.160Z,98463.25
2023-09-17T09:36:37.294Z,98453.53
2023-09-17T09:39:05.291Z,98447.75
2023-09-17T09:41:34.406Z,98449.03
2023-09-17T09:44:01.559Z,98442.59
2023-09-17T09:46:29.950Z,98440.94
2023-09-17T09:49:03.198Z,98445.91
2023-09-17T09:51:37.097Z,98454.00
2023-09-17T09:54:05.605Z,98440.69
2023-09-17T09:56:32.660Z,98440.44
2023-09-17T09:59:01.675Z,98431.50
2023-09-17T10:01:29.391Z,98433.19
2023-09-17T10:04:00.365Z,98431.53
2023-09-17T10:06:27.523Z,98424.66
2023-09-17T10:08:54.675Z,98421.59
2023-09-17T10:11:23.430Z,98418.91
2023-09-17T10:13:54.322Z,98417.44
2023-09-17T10:16:21.301Z,98420.16
2023-09-17T10:18:49.750Z,98423.88
2023-09-17T10:21:17.692Z,98422.03
2023-09-17T10:23:45.693Z,98417.88
2023-09-17T10:26:12.705Z,98414.91
2023-09-17T10:28:40.484Z,98420.34
2023-09-17T10:31:09.639Z,98412.88
2023-09-17T10:33:37.874Z,98408.47
2023-09-17T10:36:08.493Z,98410.69
2023-09-17T10:38:36.352Z,98413.00
2023-09-17T10:41:06.160Z,98410.25
2023-09-17T10:43:37.683Z,98408.78
2023-09-17T10:46:07.457Z,98409.22
2023-09-17T10:48:35.075Z,98403.81
2023-09-17T10:51:02.175Z,98403.59
2023-09-17T10:53:29.261Z,98408.63
2023-09-17T10:56:11.277Z,98400.16
2023-09-17T10:58:54.060Z,98409.56
2023-09-17T11:01:27.356Z,98409.88
2023-09-17T11:04:02.319Z,98410.41
2023-09-17T11:06:32.004Z,98409.59
2023-09-17T11:08:59.033Z,98408.78
2023-09-17T11:11:27.507Z,98407.28
2023-09-17T11:13:55.114Z,98406.16
2023-09-17T11:16:25.527Z,98406.16
2023-09-17T11:19:07.639Z,98408.72
2023-09-17T11:21:36.283Z,98403.53
2023-09-17T11:24:09.924Z,98415.88
2023-09-17T11:26:38.781Z,98407.88
2023-09-17T11:29:07.392Z,98407.88
2023-09-17T11:31:54.882Z,98411.50
2023-09-17T11:34:22.325Z,98411.72
2023-09-17T11:36:49.865Z,98401.03
2023-09-17T11:39:17.204Z,98398.63
2023-09-17T11:41:47.719Z,62137.28
2023-09-17T11:44:14.563Z,62137.28
2023-09-17T11:46:42.452Z,62137.28
2023-09-17T11:49:10.236Z,62137.28
2023-09-17T11:51:43.653Z,62137.28
2023-09-17T11:54:17.161Z,62137.28
2023-09-17T11:56:54.928Z,62137.28
2023-09-17T11:59:22.959Z,62137.28
2023-09-17T12:01:57.078Z,62137.28
2023-09-17T12:04:32.411Z,62137.28
2023-09-17T12:07:00.336Z,62137.28
2023-09-17T12:09:40.303Z,62137.28
2023-09-17T12:12:07.764Z,62137.28
2023-09-17T12:14:35.185Z,62137.28
2023-09-17T12:17:05.396Z,62137.28
2023-09-17T12:19:32.701Z,62137.28
2023-09-17T12:22:01.167Z,62137.28
2023-09-17T12:24:41.289Z,62137.28
2023-09-17T12:27:15.252Z,62137.28
2023-09-17T12:29:42.281Z,62137.28
2023-09-17T12:32:11.499Z,62137.28
2023-09-17T12:34:39.145Z,62137.28
2023-09-17T12:37:06.955Z,62137.28
2023-09-17T12:39:33.858Z,62137.28
2023-09-17T12:42:00.510Z,62137.28
2023-09-17T12:44:28.171Z,62137.28
2023-09-17T12:46:55.140Z,62137.28
2023-09-17T12:49:23.258Z,62137.28
2023-09-17T12:51:52.736Z,62137.28
2023-09-17T12:54:22.566Z,62137.28
2023-09-17T12:56:50.517Z,62137.28
2023-09-17T12:59:17.837Z,62137.28
2023-09-17T13:01:55.175Z,62137.28
2023-09-17T13:04:42.376Z,62137.28
2023-09-17T13:07:19.669Z,62137.28
2023-09-17T13:09:47.681Z,62137.28
2023-09-17T13:12:24.023Z,62137.28
2023-09-17T13:14:53.017Z,62137.28
2023-09-17T13:17:21.321Z,62137.28
2023-09-17T13:19:48.965Z,62137.28
2023-09-17T13:22:17.339Z,62137.28
2023-09-17T13:24:48.064Z,62137.28
2023-09-17T13:27:19.054Z,62137.28
2023-09-17T13:29:50.745Z,62137.28
2023-09-17T13:32:19.701Z,62137.28
2023-09-17T13:34:46.885Z,62137.28
2023-09-17T13:37:15.101Z,62137.28
2023-09-17T13:39:43.871Z,62137.28
2023-09-17T13:42:13.118Z,62137.28
2023-09-17T13:44:39.875Z,62137.28
2023-09-17T13:47:13.020Z,62137.28
2023-09-17T13:49:40.867Z,62137.28
2023-09-17T13:52:09.416Z,62137.28
2023-09-17T13:54:38.954Z,62137.28
2023-09-17T13:57:06.228Z,62137.28
2023-09-17T13:59:33.019Z,62137.28
2023-09-17T14:01:59.675Z,62137.28
2023-09-17T14:04:26.501Z,62137.28
2023-09-17T14:06:56.067Z,62137.28
2023-09-17T14:09:23.564Z,62137.28
2023-09-17T14:11:50.344Z,62137.28
2023-09-17T14:14:17.135Z,62137.28
2023-09-17T14:16:44.803Z,62137.28
2023-09-17T14:19:17.833Z,62137.28
2023-09-17T14:21:45.414Z,62137.28
2023-09-17T14:24:12.221Z,62137.28
2023-09-17T14:26:38.903Z,62137.28
2023-09-17T14:29:05.579Z,62137.28
2023-09-17T14:31:32.412Z,62137.28
2023-09-17T14:33:59.089Z,62137.28
2023-09-17T14:36:25.770Z,62137.28
2023-09-17T14:38:52.664Z,62137.28
2023-09-17T14:41:20.042Z,62137.28
2023-09-17T14:43:47.038Z,62137.28
2023-09-17T14:46:13.828Z,62137.28
2023-09-17T14:48:40.555Z,62137.28
2023-09-17T14:51:07.268Z,62137.28
2023-09-17T14:53:33.910Z,62137.28
2023-09-17T14:56:00.553Z,62137.28
2023-09-17T14:58:27.179Z,98398.63
2023-09-17T15:00:54.186Z,98208.31
2023-09-17T15:03:21.132Z,98204.94
2023-09-17T15:05:47.946Z,62137.28
2023-09-17T15:08:15.023Z,62137.28
2023-09-17T15:10:43.818Z,98204.94
2023-09-17T15:13:10.690Z,98196.47
2023-09-17T15:15:37.394Z,98190.56
2023-09-17T15:18:04.251Z,98193.13
2023-09-17T15:20:31.394Z,98185.91
2023-09-17T15:22:58.483Z,98186.13
2023-09-17T15:25:25.150Z,98179.41
2023-09-17T15:27:51.818Z,98181.13
2023-09-17T15:30:18.894Z,98179.66
2023-09-17T15:32:45.737Z,98185.25
2023-09-17T15:35:18.032Z,98189.72
2023-09-17T15:37:47.932Z,98191.59
2023-09-17T15:40:14.884Z,98185.44
2023-09-17T15:42:45.053Z,98182.56
2023-09-17T15:45:11.989Z,98178.31
2023-09-17T15:47:41.495Z,98178.75
2023-09-17T15:50:09.446Z,98186.72
2023-09-17T15:52:36.322Z,98180.72
2023-09-17T15:55:04.584Z,98178.88
2023-09-17T15:57:31.329Z,98180.53
2023-09-17T15:59:58.644Z,98181.00
2023-09-17T16:02:25.518Z,98179.22
2023-09-17T16:04:52.286Z,98183.09
2023-09-17T16:07:18.989Z,98179.28
2023-09-17T16:09:45.702Z,98181.00
2023-09-17T16:12:12.353Z,98172.13
2023-09-17T16:14:39.397Z,98176.75
2023-09-17T16:17:06.093Z,98167.47
2023-09-17T16:19:32.820Z,98168.00
2023-09-17T16:21:59.506Z,98181.84
2023-09-17T16:24:26.517Z,98177.75
2023-09-17T16:26:53.146Z,98178.41
2023-09-17T16:29:19.873Z,98174.72
2023-09-17T16:31:46.746Z,98169.97
2023-09-17T16:34:13.571Z,98176.44
2023-09-17T16:36:41.048Z,98171.91
2023-09-17T16:39:07.750Z,98168.41
2023-09-17T16:41:34.413Z,98169.06
2023-09-17T16:44:01.142Z,98167.00
2023-09-17T16:46:27.949Z,98166.84
2023-09-17T16:48:54.793Z,98161.03
2023-09-17T16:51:21.480Z,98159.00
2023-09-17T16:53:48.149Z,98158.41
2023-09-17T16:56:14.837Z,98164.00
2023-09-17T16:58:41.569Z,98158.22
2023-09-17T17:01:08.466Z,98148.69
2023-09-17T17:03:35.159Z,98148.91
2023-09-17T17:06:01.827Z,98149.78
2023-09-17T17:08:29.412Z,98142.94
2023-09-17T17:10:57.837Z,98140.53
2023-09-17T17:13:24.582Z,98139.72
2023-09-17T17:15:51.285Z,98139.34
2023-09-17T17:18:18.068Z,98140.84
2023-09-17T17:20:44.677Z,98138.78
2023-09-17T17:23:11.455Z,62137.28
2023-09-17T17:25:38.156Z,62137.28
2023-09-17T17:28:05.274Z,62137.28
2023-09-17T17:30:32.018Z,98138.78
2023-09-17T17:32:58.813Z,98147.31
2023-09-17T17:35:25.611Z,98145.03
2023-09-17T17:37:52.407Z,98150.00
2023-09-17T17:40:23.630Z,98140.41
2023-09-17T17:42:51.228Z,98141.44
2023-09-17T17:45:18.183Z,98130.66
2023-09-17T17:47:44.965Z,98142.22
2023-09-17T17:50:14.622Z,98143.03
2023-09-17T17:52:42.185Z,98143.84
2023-09-17T17:55:09.647Z,98142.75
2023-09-17T17:57:37.055Z,98133.56
2023-09-17T18:00:07.114Z,98135.59
2023-09-17T18:02:34.292Z,98119.19
2023-09-17T18:05:06.165Z,98122.69
2023-09-17T18:07:34.953Z,98122.59
2023-09-17T18:10:07.744Z,98115.31
2023-09-17T18:12:35.418Z,98116.06
2023-09-17T18:15:06.380Z,98121.41
2023-09-17T18:17:33.155Z,98119.69
2023-09-17T18:20:00.689Z,98117.97
2023-09-17T18:22:27.845Z,98110.25
2023-09-17T18:24:54.754Z,98120.09
2023-09-17T18:27:21.550Z,98123.75
2023-09-17T18:29:48.500Z,98128.44
2023-09-17T18:32:15.412Z,98126.72
2023-09-17T18:34:42.066Z,98126.84
2023-09-17T18:37:09.348Z,98126.31
2023-09-17T18:39:36.096Z,98126.91
2023-09-17T18:42:03.213Z,98126.63
2023-09-17T18:44:30.220Z,98132.13
2023-09-17T18:46:57.260Z,98126.47
2023-09-17T18:49:23.950Z,98118.16
2023-09-17T18:51:50.676Z,98117.25
2023-09-17T18:54:18.925Z,98105.44
2023-09-17T18:56:45.679Z,98105.38
2023-09-17T18:59:12.461Z,98107.97
2023-09-17T19:01:42.360Z,98099.66
2023-09-17T19:04:09.320Z,98090.69
2023-09-17T19:06:37.037Z,98094.13
2023-09-17T19:09:07.139Z,98095.44
2023-09-17T19:11:34.990Z,98105.41
2023-09-17T19:14:02.422Z,98104.28
2023-09-17T19:16:30.675Z,98105.84
2023-09-17T19:18:57.936Z,98114.28
2023-09-17T19:21:25.838Z,98111.13
2023-09-17T19:23:54.773Z,98110.47
2023-09-17T19:26:22.068Z,98114.53
2023-09-17T19:28:48.813Z,98110.53
2023-09-17T19:31:15.629Z,98115.63
2023-09-17T19:33:42.375Z,98114.72
2023-09-17T19:36:09.045Z,98111.56
2023-09-17T19:38:36.116Z,98099.94
2023-09-17T19:41:05.503Z,98097.78
2023-09-17T19:43:32.194Z,98091.69
2023-09-17T19:45:59.039Z,98091.03
2023-09-17T19:48:25.961Z,98098.59
2023-09-17T19:50:52.871Z,98101.16
2023-09-17T19:53:20.755Z,98102.16
2023-09-17T19:55:47.958Z,98091.97
2023-09-17T19:58:14.823Z,98083.00
2023-09-17T20:00:42.845Z,98075.88
2023-09-17T20:03:09.973Z,98074.91
2023-09-17T20:05:37.196Z,98085.81
2023-09-17T20:08:08.531Z,98075.47
2023-09-17T20:10:38.219Z,98062.63
2023-09-17T20:13:05.807Z,98065.00
2023-09-17T20:15:32.581Z,98065.00
2023-09-17T20:17:59.460Z,98065.41
2023-09-17T20:20:31.979Z,98058.78
2023-09-17T20:22:59.253Z,98060.78
2023-09-17T20:25:28.009Z,98048.75
2023-09-17T20:27:59.294Z,98045.78
2023-09-17T20:30:27.690Z,98051.88
2023-09-17T20:32:58.033Z,98047.03
2023-09-17T20:35:25.074Z,98046.06
2023-09-17T20:37:51.863Z,98052.28
2023-09-17T20:40:18.718Z,98052.63
2023-09-17T20:42:45.393Z,98050.28
2023-09-17T20:45:12.205Z,98033.31
2023-09-17T20:47:39.564Z,98035.78
2023-09-17T20:50:08.914Z,98037.31
2023-09-17T20:52:35.727Z,98054.09
2023-09-17T20:55:03.361Z,98046.97
2023-09-17T20:57:30.418Z,98043.09
2023-09-17T21:00:00.469Z,98044.75
2023-09-17T21:02:27.722Z,98044.75
2023-09-17T21:04:58.807Z,98044.75
2023-09-17T21:07:26.668Z,98037.09
2023-09-17T21:09:54.664Z,98032.47
2023-09-17T21:12:22.155Z,98035.47
2023-09-17T21:14:49.215Z,98033.81
2023-09-17T21:17:16.536Z,98035.34
2023-09-17T21:19:43.781Z,98031.81
2023-09-17T21:22:12.332Z,98031.50
2023-09-17T21:24:39.909Z,98016.66
2023-09-17T21:27:06.799Z,98025.22
2023-09-17T21:29:37.062Z,98025.88
2023-09-17T21:32:04.325Z,98021.38
2023-09-17T21:34:31.598Z,98014.38
2023-09-17T21:36:58.602Z,98010.19
2023-09-17T21:39:32.544Z,98004.19
2023-09-17T21:41:59.431Z,98002.69
2023-09-17T21:44:26.263Z,97997.56
2023-09-17T21:46:56.456Z,98004.19
2023-09-17T21:49:23.476Z,98013.72
2023-09-17T21:51:50.149Z,98008.56
2023-09-17T21:54:17.070Z,98005.56
2023-09-17T21:56:44.537Z,98003.41
2023-09-17T21:59:11.301Z,97997.41
2023-09-17T22:01:38.014Z,97992.22
2023-09-17T22:04:05.073Z,97988.91
2023-09-17T22:06:31.804Z,97984.06
2023-09-17T22:08:58.461Z,97975.75
2023-09-17T22:11:25.289Z,97975.91
2023-09-17T22:13:52.587Z,97978.09
2023-09-17T22:16:19.340Z,97968.25
2023-09-17T22:18:45.935Z,97954.25
2023-09-17T22:21:12.614Z,97942.09
2023-09-17T22:23:39.326Z,97937.94
2023-09-17T22:26:07.535Z,97925.09
2023-09-17T22:28:34.604Z,97931.44
2023-09-17T22:31:19.697Z,97936.94
2023-09-17T22:33:46.682Z,97929.97
2023-09-17T22:36:13.991Z,97943.94
2023-09-17T22:38:45.389Z,97940.63
2023-09-17T22:41:22.828Z,97923.63
2023-09-17T22:43:50.868Z,97921.97
2023-09-17T22:46:19.333Z,97919.28
2023-09-17T22:48:51.238Z,97927.63
2023-09-17T22:51:18.697Z,97932.16
2023-09-17T22:53:47.076Z,97936.47
2023-09-17T22:56:14.195Z,97934.47
2023-09-17T22:58:41.481Z,97931.47
2023-09-17T23:01:12.467Z,97938.28
2023-09-17T23:03:40.748Z,97934.28
2023-09-17T23:06:07.491Z,97935.94
2023-09-17T23:08:34.236Z,97927.78
2023-09-17T23:11:03.795Z,97922.63
2023-09-17T23:13:31.605Z,97912.81
2023-09-17T23:15:59.458Z,97909.13
2023-09-17T23:18:31.223Z,97892.78
2023-09-17T23:20:58.587Z,97887.47
2023-09-17T23:23:25.718Z,97886.47
2023-09-17T23:25:56.182Z,97885.81
2023-09-17T23:28:33.149Z,97883.97
2023-09-17T23:31:05.013Z,97877.13
2023-09-17T23:33:32.855Z,97870.00
2023-09-17T23:36:01.134Z,97874.16
2023-09-17T23:38:29.048Z,97869.69
2023-09-17T23:40:56.700Z,97865.50
2023-09-17T23:43:23.800Z,97864.69
2023-09-17T23:45:50.502Z,97867.66
2023-09-17T23:48:17.244Z,97863.19
2023-09-17T23:50:44.357Z,97852.69
2023-09-17T23:53:11.224Z,97855.03
2023-09-17T23:55:37.870Z,97855.53
2023-09-17T23:58:04.608Z,97850.03
